createdAt,value
2023-05-04T00:00:06.250Z,7.38
2023-05-04T00:02:03.692Z,7.38
2023-05-04T00:02:33.064Z,7.12
2023-05-04T00:04:59.662Z,7.41
2023-05-04T00:07:03.676Z,7.41
2023-05-04T00:07:26.286Z,7.43
2023-05-04T00:09:52.668Z,7.44
2023-05-04T00:12:03.659Z,7.44
2023-05-04T00:12:19.085Z,7.45
2023-05-04T00:14:45.484Z,7.21
2023-05-04T00:17:03.621Z,7.21
2023-05-04T00:17:13.969Z,7.30
2023-05-04T00:19:42.281Z,7.15
2023-05-04T00:22:03.635Z,7.15
2023-05-04T00:22:09.104Z,7.25
2023-05-04T00:24:35.633Z,7.22
2023-05-04T00:27:02.438Z,6.74
2023-05-04T00:27:03.629Z,6.74
2023-05-04T00:29:29.237Z,6.66
2023-05-04T00:31:56.162Z,6.47
2023-05-04T00:32:03.810Z,6.47
2023-05-04T00:34:22.900Z,6.71
2023-05-04T00:36:49.615Z,6.81
2023-05-04T00:37:03.660Z,6.81
2023-05-04T00:39:16.346Z,6.57
2023-05-04T00:41:42.726Z,6.16
2023-05-04T00:42:03.658Z,6.16
2023-05-04T00:44:09.273Z,6.99
2023-05-04T00:46:36.929Z,6.86
2023-05-04T00:47:03.714Z,6.86
2023-05-04T00:49:03.901Z,6.95
2023-05-04T00:51:30.780Z,6.44
2023-05-04T00:52:03.660Z,6.44
2023-05-04T00:53:58.153Z,6.16
2023-05-04T00:56:25.237Z,6.74
2023-05-04T00:57:03.653Z,6.74
2023-05-04T00:58:54.366Z,6.81
2023-05-04T01:01:22.263Z,6.48
2023-05-04T01:02:03.645Z,6.48
2023-05-04T01:03:53.729Z,6.65
2023-05-04T01:06:45.266Z,6.73
2023-05-04T01:07:03.690Z,6.73
2023-05-04T01:09:22.492Z,6.72
2023-05-04T01:11:58.151Z,6.33
2023-05-04T01:12:03.669Z,6.33
2023-05-04T01:14:25.500Z,6.09
2023-05-04T01:16:57.884Z,6.37
2023-05-04T01:17:03.817Z,6.37
2023-05-04T01:19:24.934Z,6.49
2023-05-04T01:21:51.318Z,6.66
2023-05-04T01:22:03.640Z,6.66
2023-05-04T01:24:17.756Z,6.50
2023-05-04T01:26:46.938Z,6.64
2023-05-04T01:27:03.676Z,6.64
2023-05-04T01:29:19.443Z,6.63
2023-05-04T01:31:46.717Z,6.62
2023-05-04T01:32:03.840Z,6.62
2023-05-04T01:34:14.301Z,6.66
2023-05-04T01:36:41.679Z,6.69
2023-05-04T01:37:03.660Z,6.69
2023-05-04T01:39:08.470Z,6.04
2023-05-04T01:41:36.098Z,6.70
2023-05-04T01:42:03.688Z,6.70
2023-05-04T01:44:03.773Z,5.26
2023-05-04T01:46:30.313Z,6.38
2023-05-04T01:47:03.691Z,6.38
2023-05-04T01:48:56.843Z,6.68
2023-05-04T01:51:23.211Z,6.56
2023-05-04T01:52:03.743Z,6.56
2023-05-04T01:53:49.599Z,6.68
2023-05-04T01:56:15.962Z,6.64
2023-05-04T01:57:03.680Z,6.64
2023-05-04T01:58:42.341Z,6.61
2023-05-04T02:01:09.288Z,6.21
2023-05-04T02:02:03.820Z,6.21
2023-05-04T02:03:35.789Z,6.56
2023-05-04T02:06:02.231Z,6.49
2023-05-04T02:07:03.660Z,6.49
2023-05-04T02:08:28.697Z,6.25
2023-05-04T02:10:55.020Z,6.24
2023-05-04T02:12:03.673Z,6.24
2023-05-04T02:13:22.145Z,6.53
2023-05-04T02:15:48.627Z,6.38
2023-05-04T02:17:03.676Z,6.38
2023-05-04T02:18:15.006Z,5.98
2023-05-04T02:20:41.386Z,6.47
2023-05-04T02:22:03.692Z,6.47
2023-05-04T02:23:07.759Z,6.50
2023-05-04T02:25:34.207Z,6.52
2023-05-04T02:27:03.649Z,6.52
2023-05-04T02:28:00.856Z,6.42
2023-05-04T02:30:27.233Z,6.49
2023-05-04T02:32:03.795Z,6.49
2023-05-04T02:32:53.647Z,6.13
2023-05-04T02:35:20.337Z,6.41
2023-05-04T02:37:05.840Z,6.41
2023-05-04T02:37:46.830Z,6.29
2023-05-04T02:40:13.560Z,6.47
2023-05-04T02:42:03.723Z,6.47
2023-05-04T02:42:39.945Z,6.44
2023-05-04T02:45:07.620Z,4.58
2023-05-04T02:47:03.686Z,4.58
2023-05-04T02:47:34.085Z,6.36
2023-05-04T02:50:00.746Z,6.53
2023-05-04T02:52:03.789Z,6.53
2023-05-04T02:52:27.121Z,5.98
2023-05-04T02:54:53.516Z,6.46
2023-05-04T02:57:03.713Z,6.46
2023-05-04T02:57:19.981Z,6.34
2023-05-04T02:59:46.667Z,5.76
2023-05-04T03:02:03.698Z,5.76
2023-05-04T03:02:13.176Z,6.31
2023-05-04T03:04:39.645Z,6.26
2023-05-04T03:07:03.664Z,6.26
2023-05-04T03:07:06.595Z,6.19
2023-05-04T03:09:32.960Z,6.14
2023-05-04T03:11:59.303Z,5.98
2023-05-04T03:12:03.681Z,5.98
2023-05-04T03:14:26.300Z,5.60
2023-05-04T03:16:52.762Z,5.90
2023-05-04T03:17:03.687Z,5.90
2023-05-04T03:19:19.900Z,5.89
2023-05-04T03:21:46.579Z,5.40
2023-05-04T03:22:03.658Z,5.40
2023-05-04T03:24:13.327Z,5.69
2023-05-04T03:26:39.848Z,5.75
2023-05-04T03:27:03.686Z,5.75
2023-05-04T03:29:06.277Z,5.68
2023-05-04T03:31:32.679Z,5.67
2023-05-04T03:32:03.835Z,5.67
2023-05-04T03:33:59.070Z,5.65
2023-05-04T03:36:25.574Z,5.53
2023-05-04T03:37:03.690Z,5.53
2023-05-04T03:38:51.971Z,5.21
2023-05-04T03:41:18.440Z,5.52
2023-05-04T03:42:03.724Z,5.52
2023-05-04T03:43:44.852Z,5.18
2023-05-04T03:46:11.516Z,5.53
2023-05-04T03:47:03.660Z,5.53
2023-05-04T03:48:37.946Z,5.45
2023-05-04T03:51:04.622Z,5.47
2023-05-04T03:52:03.729Z,5.47
2023-05-04T03:53:31.041Z,5.42
2023-05-04T03:55:57.450Z,5.47
2023-05-04T03:57:03.666Z,5.47
2023-05-04T03:58:23.757Z,5.14
2023-05-04T04:00:50.084Z,5.05
2023-05-04T04:02:03.733Z,5.05
2023-05-04T04:03:16.689Z,5.50
2023-05-04T04:05:43.418Z,5.49
2023-05-04T04:07:03.659Z,5.49
2023-05-04T04:08:12.373Z,5.49
2023-05-04T04:10:38.719Z,5.51
2023-05-04T04:12:03.699Z,5.51
2023-05-04T04:13:05.187Z,5.53
2023-05-04T04:15:31.581Z,5.54
2023-05-04T04:17:03.677Z,5.54
2023-05-04T04:17:58.093Z,5.25
2023-05-04T04:20:24.491Z,5.59
2023-05-04T04:22:03.659Z,5.59
2023-05-04T04:22:51.931Z,5.27
2023-05-04T04:25:18.284Z,5.02
2023-05-04T04:27:03.676Z,5.02
2023-05-04T04:27:44.621Z,5.51
2023-05-04T04:30:12.180Z,5.74
2023-05-04T04:32:03.968Z,5.74
2023-05-04T04:32:38.654Z,5.85
2023-05-04T04:35:06.755Z,5.57
2023-05-04T04:37:03.644Z,5.57
2023-05-04T04:37:33.090Z,5.85
2023-05-04T04:39:59.448Z,6.13
2023-05-04T04:42:03.666Z,6.13
2023-05-04T04:42:26.189Z,6.22
2023-05-04T04:44:54.728Z,6.37
2023-05-04T04:47:03.795Z,6.37
2023-05-04T04:47:21.089Z,5.51
2023-05-04T04:49:47.712Z,7.03
2023-05-04T04:52:03.716Z,7.03
2023-05-04T04:52:14.203Z,7.11
2023-05-04T04:54:40.704Z,8.01
2023-05-04T04:57:03.694Z,8.01
2023-05-04T04:57:10.254Z,7.98
2023-05-04T04:59:38.086Z,7.89
2023-05-04T05:02:04.488Z,8.46
2023-05-04T05:02:04.676Z,8.46
2023-05-04T05:04:31.216Z,8.72
2023-05-04T05:06:57.660Z,9.14
2023-05-04T05:07:03.665Z,9.14
2023-05-04T05:09:24.145Z,9.69
2023-05-04T05:11:50.686Z,10.37
2023-05-04T05:12:03.683Z,10.37
2023-05-04T05:14:17.017Z,11.01
2023-05-04T05:16:43.479Z,11.69
2023-05-04T05:17:03.732Z,11.69
2023-05-04T05:19:09.881Z,11.98
2023-05-04T05:21:36.329Z,12.72
2023-05-04T05:22:03.702Z,12.72
2023-05-04T05:24:02.907Z,13.21
2023-05-04T05:26:29.464Z,13.13
2023-05-04T05:27:03.681Z,13.13
2023-05-04T05:28:56.011Z,13.27
2023-05-04T05:31:22.450Z,12.51
2023-05-04T05:32:04.849Z,12.51
2023-05-04T05:33:48.910Z,13.17
2023-05-04T05:36:15.311Z,13.40
2023-05-04T05:37:03.668Z,13.40
2023-05-04T05:38:41.849Z,13.33
2023-05-04T05:41:09.729Z,13.35
2023-05-04T05:42:03.714Z,13.35
2023-05-04T05:43:38.413Z,13.33
2023-05-04T05:46:06.458Z,13.39
2023-05-04T05:47:03.706Z,13.39
2023-05-04T05:48:33.749Z,13.19
2023-05-04T05:51:00.266Z,12.33
2023-05-04T05:52:03.707Z,12.33
2023-05-04T05:53:26.865Z,13.20
2023-05-04T05:55:53.265Z,13.23
2023-05-04T05:57:03.720Z,13.23
2023-05-04T05:58:19.631Z,12.88
2023-05-04T06:00:46.295Z,13.18
2023-05-04T06:02:03.690Z,13.18
2023-05-04T06:03:12.746Z,13.12
2023-05-04T06:05:39.178Z,13.06
2023-05-04T06:07:03.680Z,13.06
2023-05-04T06:08:05.637Z,12.78
2023-05-04T06:10:32.128Z,10.96
2023-05-04T06:12:03.722Z,10.96
2023-05-04T06:12:58.549Z,13.15
2023-05-04T06:15:24.932Z,12.66
2023-05-04T06:17:03.695Z,12.66
2023-05-04T06:17:51.420Z,12.97
2023-05-04T06:20:18.079Z,12.98
2023-05-04T06:22:03.700Z,12.98
2023-05-04T06:22:44.491Z,12.79
2023-05-04T06:25:11.508Z,13.26
2023-05-04T06:27:03.715Z,13.26
2023-05-04T06:27:37.891Z,13.14
2023-05-04T06:30:05.259Z,13.40
2023-05-04T06:32:03.779Z,13.40
2023-05-04T06:32:32.136Z,13.14
2023-05-04T06:34:59.433Z,13.22
2023-05-04T06:37:03.724Z,13.22
2023-05-04T06:37:26.674Z,13.13
2023-05-04T06:39:53.124Z,12.88
2023-05-04T06:42:03.719Z,12.88
2023-05-04T06:42:19.494Z,13.50
2023-05-04T06:44:45.951Z,13.24
2023-05-04T06:47:03.698Z,13.24
2023-05-04T06:47:12.482Z,13.36
2023-05-04T06:49:38.836Z,13.46
2023-05-04T06:52:03.688Z,13.46
2023-05-04T06:52:05.438Z,12.76
2023-05-04T06:54:32.463Z,13.27
2023-05-04T06:56:58.852Z,13.79
2023-05-04T06:57:03.855Z,13.79
2023-05-04T06:59:25.354Z,13.98
2023-05-04T07:01:51.746Z,13.98
2023-05-04T07:02:03.713Z,13.98
2023-05-04T07:04:21.634Z,14.05
2023-05-04T07:06:48.157Z,14.12
2023-05-04T07:07:03.735Z,14.12
2023-05-04T07:09:17.832Z,14.20
2023-05-04T07:11:44.269Z,14.11
2023-05-04T07:12:03.707Z,14.11
2023-05-04T07:14:11.391Z,13.60
2023-05-04T07:16:38.229Z,14.33
2023-05-04T07:17:03.708Z,14.33
2023-05-04T07:19:04.615Z,13.92
2023-05-04T07:21:31.478Z,14.45
2023-05-04T07:22:03.693Z,14.45
2023-05-04T07:23:57.864Z,14.45
2023-05-04T07:26:24.275Z,14.35
2023-05-04T07:27:03.690Z,14.35
2023-05-04T07:28:50.641Z,14.48
2023-05-04T07:31:17.115Z,14.48
2023-05-04T07:32:03.723Z,14.48
2023-05-04T07:33:43.578Z,14.57
2023-05-04T07:36:10.049Z,14.44
2023-05-04T07:37:03.753Z,14.44
2023-05-04T07:38:36.965Z,14.66
2023-05-04T07:41:03.402Z,15.00
2023-05-04T07:42:03.753Z,15.00
2023-05-04T07:43:29.892Z,15.07
2023-05-04T07:45:56.546Z,14.91
2023-05-04T07:47:03.686Z,14.91
2023-05-04T07:48:24.707Z,15.18
2023-05-04T07:50:53.689Z,14.84
2023-05-04T07:52:03.722Z,14.84
2023-05-04T07:53:20.804Z,15.48
2023-05-04T07:55:47.888Z,15.38
2023-05-04T07:57:03.737Z,15.38
2023-05-04T07:58:15.447Z,15.64
2023-05-04T08:00:41.908Z,15.83
2023-05-04T08:02:03.785Z,15.83
2023-05-04T08:03:08.424Z,15.91
2023-05-04T08:05:34.800Z,15.83
2023-05-04T08:07:03.740Z,15.83
2023-05-04T08:08:01.284Z,16.07
2023-05-04T08:10:29.086Z,16.11
2023-05-04T08:12:03.720Z,16.11
2023-05-04T08:12:55.577Z,15.83
2023-05-04T08:15:22.202Z,16.18
2023-05-04T08:17:03.700Z,16.18
2023-05-04T08:17:48.650Z,16.64
2023-05-04T08:20:15.227Z,16.77
2023-05-04T08:22:03.766Z,16.77
2023-05-04T08:22:41.604Z,16.41
2023-05-04T08:25:09.394Z,16.84
2023-05-04T08:27:07.861Z,16.84
2023-05-04T08:27:35.754Z,16.90
2023-05-04T08:30:02.118Z,16.40
2023-05-04T08:32:03.849Z,16.40
2023-05-04T08:32:29.974Z,17.40
2023-05-04T08:34:57.380Z,17.68
2023-05-04T08:37:03.770Z,17.68
2023-05-04T08:37:23.760Z,17.85
2023-05-04T08:39:50.762Z,17.05
2023-05-04T08:42:03.732Z,17.05
2023-05-04T08:42:31.166Z,17.50
2023-05-04T08:44:58.371Z,17.63
2023-05-04T08:47:03.739Z,17.63
2023-05-04T08:47:26.487Z,17.59
2023-05-04T08:49:57.000Z,17.75
2023-05-04T08:52:03.756Z,17.75
2023-05-04T08:52:24.691Z,17.53
2023-05-04T08:55:00.594Z,17.74
2023-05-04T08:57:03.735Z,17.74
2023-05-04T08:57:27.380Z,17.92
2023-05-04T08:59:55.471Z,18.04
2023-05-04T09:02:03.952Z,18.04
2023-05-04T09:02:24.078Z,18.28
2023-05-04T09:04:51.496Z,18.41
2023-05-04T09:07:03.721Z,18.41
2023-05-04T09:07:22.017Z,18.15
2023-05-04T09:09:50.880Z,18.67
2023-05-04T09:12:03.748Z,18.67
2023-05-04T09:12:18.089Z,18.99
2023-05-04T09:14:46.431Z,18.77
2023-05-04T09:17:03.847Z,18.77
2023-05-04T09:17:16.380Z,18.60
2023-05-04T09:19:45.923Z,18.63
2023-05-04T09:22:03.725Z,18.63
2023-05-04T09:22:17.234Z,18.59
2023-05-04T09:24:44.193Z,18.57
2023-05-04T09:27:03.733Z,18.57
2023-05-04T09:27:11.896Z,18.91
2023-05-04T09:29:40.418Z,19.04
2023-05-04T09:32:03.726Z,19.04
2023-05-04T09:32:12.250Z,18.96
2023-05-04T09:34:53.289Z,19.24
2023-05-04T09:37:03.853Z,19.24
2023-05-04T09:37:21.268Z,18.88
2023-05-04T09:40:00.137Z,19.16
2023-05-04T09:42:03.724Z,19.16
2023-05-04T09:42:26.967Z,19.48
2023-05-04T09:45:01.747Z,19.30
2023-05-04T09:47:03.733Z,19.30
2023-05-04T09:47:40.006Z,19.79
2023-05-04T09:50:20.338Z,19.97
2023-05-04T09:52:03.760Z,19.97
2023-05-04T09:52:48.718Z,19.85
2023-05-04T09:55:17.651Z,19.81
2023-05-04T09:57:03.755Z,19.81
2023-05-04T09:57:45.585Z,19.77
2023-05-04T10:00:14.118Z,20.06
2023-05-04T10:02:14.431Z,20.06
2023-05-04T10:02:40.711Z,20.15
2023-05-04T10:05:09.164Z,20.25
2023-05-04T10:07:03.724Z,20.25
2023-05-04T10:07:36.212Z,19.95
2023-05-04T10:10:03.539Z,20.41
2023-05-04T10:12:03.730Z,20.41
2023-05-04T10:12:30.001Z,20.61
2023-05-04T10:14:56.891Z,20.76
2023-05-04T10:17:03.722Z,20.76
2023-05-04T10:17:51.246Z,21.09
2023-05-04T10:20:29.944Z,21.08
2023-05-04T10:22:03.749Z,21.08
2023-05-04T10:23:12.819Z,21.03
2023-05-04T10:25:57.198Z,20.90
2023-05-04T10:27:03.764Z,20.90
2023-05-04T10:28:40.318Z,21.18
2023-05-04T10:31:09.241Z,21.12
2023-05-04T10:32:03.845Z,21.12
2023-05-04T10:33:40.484Z,21.23
2023-05-04T10:36:07.920Z,21.49
2023-05-04T10:37:03.840Z,21.49
2023-05-04T10:38:35.721Z,21.36
2023-05-04T10:41:14.414Z,21.42
2023-05-04T10:42:03.788Z,21.42
2023-05-04T10:43:42.402Z,21.15
2023-05-04T10:46:22.645Z,21.60
2023-05-04T10:47:03.739Z,21.60
2023-05-04T10:48:50.216Z,21.78
2023-05-04T10:51:32.667Z,21.70
2023-05-04T10:52:03.745Z,21.70
2023-05-04T10:54:02.231Z,22.01
2023-05-04T10:56:28.668Z,22.05
2023-05-04T10:57:03.802Z,22.05
2023-05-04T10:58:55.337Z,21.54
2023-05-04T11:01:24.292Z,21.80
2023-05-04T11:02:03.836Z,21.80
2023-05-04T11:03:52.416Z,22.06
2023-05-04T11:06:24.060Z,21.87
2023-05-04T11:07:03.743Z,21.87
2023-05-04T11:09:02.266Z,21.94
2023-05-04T11:11:28.921Z,22.17
2023-05-04T11:12:03.824Z,22.17
2023-05-04T11:13:56.632Z,20.88
2023-05-04T11:16:24.552Z,22.12
2023-05-04T11:17:05.372Z,22.12
2023-05-04T11:18:53.573Z,21.99
2023-05-04T11:21:27.097Z,22.30
2023-05-04T11:22:03.753Z,22.30
2023-05-04T11:24:00.390Z,22.51
2023-05-04T11:26:28.442Z,22.68
2023-05-04T11:27:03.722Z,22.68
2023-05-04T11:28:54.889Z,22.48
2023-05-04T11:31:21.486Z,22.40
2023-05-04T11:32:03.764Z,22.40
2023-05-04T11:33:48.601Z,22.43
2023-05-04T11:36:17.691Z,22.40
2023-05-04T11:37:03.860Z,22.40
2023-05-04T11:38:44.167Z,22.09
2023-05-04T11:41:12.562Z,22.75
2023-05-04T11:42:03.774Z,22.75
2023-05-04T11:43:42.222Z,22.99
2023-05-04T11:46:09.734Z,22.94
2023-05-04T11:47:03.761Z,22.94
2023-05-04T11:48:36.518Z,22.75
2023-05-04T11:51:04.298Z,22.30
2023-05-04T11:52:03.794Z,22.30
2023-05-04T11:53:41.106Z,22.85
2023-05-04T11:56:10.743Z,22.97
2023-05-04T11:57:03.768Z,22.97
2023-05-04T11:58:37.449Z,22.82
2023-05-04T12:01:04.793Z,22.86
2023-05-04T12:02:03.835Z,22.86
2023-05-04T12:03:50.993Z,22.92
2023-05-04T12:06:19.759Z,22.78
2023-05-04T12:07:03.751Z,22.78
2023-05-04T12:08:46.106Z,22.91
2023-05-04T12:11:25.330Z,22.95
2023-05-04T12:12:03.787Z,22.95
2023-05-04T12:14:11.872Z,23.39
2023-05-04T12:16:38.749Z,23.13
2023-05-04T12:17:03.759Z,23.13
2023-05-04T12:19:07.655Z,22.94
2023-05-04T12:21:35.205Z,23.52
2023-05-04T12:22:03.781Z,23.52
2023-05-04T12:24:03.288Z,23.77
2023-05-04T12:26:29.899Z,23.64
2023-05-04T12:27:03.760Z,23.64
2023-05-04T12:28:56.460Z,23.77
2023-05-04T12:31:25.406Z,24.02
2023-05-04T12:32:03.860Z,24.02
2023-05-04T12:33:52.217Z,23.92
2023-05-04T12:36:18.810Z,24.16
2023-05-04T12:37:03.777Z,24.16
2023-05-04T12:38:46.053Z,24.12
2023-05-04T12:41:12.614Z,24.07
2023-05-04T12:42:03.756Z,24.07
2023-05-04T12:43:39.066Z,24.02
2023-05-04T12:46:05.796Z,23.93
2023-05-04T12:47:03.757Z,23.93
2023-05-04T12:48:32.904Z,23.84
2023-05-04T12:51:00.869Z,23.98
2023-05-04T12:52:03.769Z,23.98
2023-05-04T12:53:29.846Z,24.02
2023-05-04T12:55:56.414Z,23.79
2023-05-04T12:57:03.794Z,23.79
2023-05-04T12:58:22.783Z,23.79
2023-05-04T13:00:49.475Z,24.23
2023-05-04T13:02:03.843Z,24.23
2023-05-04T13:03:17.886Z,23.68
2023-05-04T13:05:46.260Z,23.45
2023-05-04T13:07:03.800Z,23.45
2023-05-04T13:08:12.909Z,23.87
2023-05-04T13:10:41.969Z,24.33
2023-05-04T13:12:03.767Z,24.33
2023-05-04T13:13:08.520Z,24.34
2023-05-04T13:15:34.978Z,24.14
2023-05-04T13:17:03.769Z,24.14
2023-05-04T13:18:01.692Z,24.16
2023-05-04T13:20:28.134Z,24.25
2023-05-04T13:22:03.780Z,24.25
2023-05-04T13:22:58.221Z,24.22
2023-05-04T13:25:25.590Z,24.35
2023-05-04T13:27:03.781Z,24.35
2023-05-04T13:27:52.574Z,24.52
2023-05-04T13:30:20.510Z,24.20
2023-05-04T13:32:03.852Z,24.20
2023-05-04T13:32:46.947Z,24.45
2023-05-04T13:35:15.758Z,24.33
2023-05-04T13:37:03.874Z,24.33
2023-05-04T13:37:42.274Z,24.73
2023-05-04T13:40:09.445Z,24.62
2023-05-04T13:42:03.765Z,24.62
2023-05-04T13:42:37.322Z,23.91
2023-05-04T13:45:04.437Z,23.87
2023-05-04T13:47:03.888Z,23.87
2023-05-04T13:47:31.190Z,24.33
2023-05-04T13:49:57.916Z,23.79
2023-05-04T13:52:03.780Z,23.79
2023-05-04T13:52:24.399Z,24.32
2023-05-04T13:54:50.770Z,24.61
2023-05-04T13:57:03.762Z,24.61
2023-05-04T13:57:17.223Z,24.37
2023-05-04T13:59:54.634Z,24.16
2023-05-04T14:02:03.923Z,24.16
2023-05-04T14:02:25.072Z,24.23
2023-05-04T14:04:51.540Z,24.16
2023-05-04T14:07:03.785Z,24.16
2023-05-04T14:07:18.170Z,24.19
2023-05-04T14:09:44.614Z,24.50
2023-05-04T14:12:03.786Z,24.50
2023-05-04T14:12:11.036Z,24.64
2023-05-04T14:14:37.388Z,24.50
2023-05-04T14:17:04.095Z,24.34
2023-05-04T14:17:04.803Z,24.34
2023-05-04T14:19:30.510Z,24.20
2023-05-04T14:21:56.965Z,24.28
2023-05-04T14:22:03.763Z,24.28
2023-05-04T14:24:25.250Z,23.04
2023-05-04T14:26:51.792Z,23.96
2023-05-04T14:27:03.791Z,23.96
2023-05-04T14:29:18.185Z,24.31
2023-05-04T14:31:44.629Z,24.24
2023-05-04T14:32:03.941Z,24.24
2023-05-04T14:34:12.327Z,24.61
2023-05-04T14:36:38.674Z,24.64
2023-05-04T14:37:03.808Z,24.64
2023-05-04T14:39:05.149Z,24.64
2023-05-04T14:41:33.678Z,24.72
2023-05-04T14:42:06.216Z,24.72
2023-05-04T14:44:00.441Z,24.16
2023-05-04T14:46:29.322Z,25.23
2023-05-04T14:47:05.477Z,25.23
2023-05-04T14:48:56.214Z,24.61
2023-05-04T14:51:23.868Z,25.33
2023-05-04T14:52:03.828Z,25.33
2023-05-04T14:53:50.406Z,24.99
2023-05-04T14:56:16.791Z,24.86
2023-05-04T14:57:03.764Z,24.86
2023-05-04T14:58:43.723Z,24.74
2023-05-04T15:01:10.270Z,24.96
2023-05-04T15:02:03.916Z,24.96
2023-05-04T15:03:38.724Z,24.51
2023-05-04T15:06:06.272Z,24.61
2023-05-04T15:07:03.793Z,24.61
2023-05-04T15:08:32.733Z,24.82
2023-05-04T15:10:59.275Z,24.36
2023-05-04T15:12:03.799Z,24.36
2023-05-04T15:13:26.255Z,24.60
2023-05-04T15:15:52.978Z,24.87
2023-05-04T15:17:03.797Z,24.87
2023-05-04T15:18:21.119Z,24.20
2023-05-04T15:20:47.550Z,24.43
2023-05-04T15:22:03.834Z,24.43
2023-05-04T15:23:14.112Z,24.58
2023-05-04T15:25:41.066Z,24.54
2023-05-04T15:27:03.857Z,24.54
2023-05-04T15:28:11.168Z,24.40
2023-05-04T15:30:41.558Z,23.76
2023-05-04T15:32:03.831Z,23.76
2023-05-04T15:33:08.467Z,24.42
2023-05-04T15:35:36.363Z,24.50
2023-05-04T15:37:03.782Z,24.50
2023-05-04T15:38:03.408Z,23.79
2023-05-04T15:40:29.941Z,24.53
2023-05-04T15:42:03.893Z,24.53
2023-05-04T15:42:56.453Z,24.44
2023-05-04T15:45:23.053Z,24.45
2023-05-04T15:47:03.917Z,24.45
2023-05-04T15:47:49.528Z,24.84
2023-05-04T15:50:15.949Z,24.21
2023-05-04T15:52:03.810Z,24.21
2023-05-04T15:52:42.426Z,24.56
2023-05-04T15:55:24.401Z,24.61
2023-05-04T15:57:03.799Z,24.61
2023-05-04T15:57:53.736Z,24.01
2023-05-04T16:00:21.191Z,24.35
2023-05-04T16:02:03.915Z,24.35
2023-05-04T16:02:48.016Z,24.51
2023-05-04T16:05:14.565Z,24.56
2023-05-04T16:07:03.816Z,24.56
2023-05-04T16:07:40.950Z,24.56
2023-05-04T16:10:08.398Z,24.20
2023-05-04T16:12:03.810Z,24.20
2023-05-04T16:12:35.172Z,24.74
2023-05-04T16:15:01.691Z,24.79
2023-05-04T16:17:03.911Z,24.79
2023-05-04T16:17:29.033Z,24.40
2023-05-04T16:19:55.898Z,24.71
2023-05-04T16:22:03.818Z,24.71
2023-05-04T16:22:22.257Z,24.22
2023-05-04T16:24:48.796Z,24.59
2023-05-04T16:27:03.799Z,24.59
2023-05-04T16:27:15.330Z,24.73
2023-05-04T16:29:41.720Z,24.27
2023-05-04T16:32:03.906Z,24.27
2023-05-04T16:32:08.378Z,24.71
2023-05-04T16:34:37.460Z,24.70
2023-05-04T16:37:04.003Z,24.52
2023-05-04T16:37:04.160Z,24.52
2023-05-04T16:39:31.306Z,24.32
2023-05-04T16:41:58.546Z,23.59
2023-05-04T16:42:03.792Z,23.59
2023-05-04T16:44:27.406Z,23.68
2023-05-04T16:46:54.418Z,23.50
2023-05-04T16:47:03.792Z,23.50
2023-05-04T16:49:24.154Z,23.51
2023-05-04T16:51:56.044Z,23.30
2023-05-04T16:52:03.854Z,23.30
2023-05-04T16:54:24.269Z,23.10
2023-05-04T16:56:52.039Z,22.83
2023-05-04T16:57:03.846Z,22.83
2023-05-04T16:59:18.592Z,22.90
2023-05-04T17:01:47.525Z,23.00
2023-05-04T17:02:03.945Z,23.00
2023-05-04T17:04:13.984Z,22.74
2023-05-04T17:06:40.486Z,22.90
2023-05-04T17:07:03.785Z,22.90
2023-05-04T17:09:07.121Z,22.89
2023-05-04T17:11:34.568Z,22.97
2023-05-04T17:12:03.933Z,22.97
2023-05-04T17:14:01.356Z,23.02
2023-05-04T17:16:27.724Z,22.69
2023-05-04T17:17:03.805Z,22.69
2023-05-04T17:18:54.171Z,22.44
2023-05-04T17:21:20.754Z,22.89
2023-05-04T17:22:03.804Z,22.89
2023-05-04T17:23:47.247Z,22.66
2023-05-04T17:26:13.741Z,22.78
2023-05-04T17:27:03.835Z,22.78
2023-05-04T17:28:42.306Z,22.38
2023-05-04T17:31:24.235Z,22.71
2023-05-04T17:32:03.880Z,22.71
2023-05-04T17:33:50.806Z,22.55
2023-05-04T17:36:17.251Z,22.41
2023-05-04T17:37:03.852Z,22.41
2023-05-04T17:38:43.643Z,22.84
2023-05-04T17:41:10.361Z,22.16
2023-05-04T17:42:04.888Z,22.16
2023-05-04T17:43:37.124Z,22.59
2023-05-04T17:46:03.704Z,22.63
2023-05-04T17:47:05.558Z,22.63
2023-05-04T17:48:32.811Z,22.60
2023-05-04T17:50:59.992Z,22.20
2023-05-04T17:52:03.853Z,22.20
2023-05-04T17:53:29.722Z,22.09
2023-05-04T17:55:56.239Z,22.44
2023-05-04T17:57:03.807Z,22.44
2023-05-04T17:58:22.766Z,22.37
2023-05-04T18:00:52.007Z,22.41
2023-05-04T18:02:03.959Z,22.41
2023-05-04T18:03:19.644Z,22.41
2023-05-04T18:05:46.508Z,22.34
2023-05-04T18:07:03.836Z,22.34
2023-05-04T18:08:13.443Z,22.29
2023-05-04T18:10:40.366Z,22.34
2023-05-04T18:12:03.838Z,22.34
2023-05-04T18:13:06.732Z,22.25
2023-05-04T18:15:33.373Z,21.19
2023-05-04T18:17:03.830Z,21.19
2023-05-04T18:17:59.822Z,21.46
2023-05-04T18:20:26.516Z,22.02
2023-05-04T18:22:03.831Z,22.02
2023-05-04T18:22:52.883Z,21.99
2023-05-04T18:25:19.207Z,21.99
2023-05-04T18:27:03.818Z,21.99
2023-05-04T18:27:45.681Z,21.68
2023-05-04T18:30:12.259Z,21.44
2023-05-04T18:32:03.927Z,21.44
2023-05-04T18:32:38.927Z,21.46
2023-05-04T18:35:05.722Z,21.14
2023-05-04T18:37:03.824Z,21.14
2023-05-04T18:37:32.345Z,21.57
2023-05-04T18:39:59.254Z,20.98
2023-05-04T18:42:03.817Z,20.98
2023-05-04T18:42:26.012Z,21.09
2023-05-04T18:44:53.200Z,21.16
2023-05-04T18:47:03.925Z,21.16
2023-05-04T18:47:19.992Z,20.77
2023-05-04T18:49:51.108Z,20.75
2023-05-04T18:52:03.833Z,20.75
2023-05-04T18:52:18.028Z,20.56
2023-05-04T18:54:44.345Z,20.15
2023-05-04T18:57:03.833Z,20.15
2023-05-04T18:57:11.093Z,20.36
2023-05-04T18:59:37.728Z,20.36
2023-05-04T19:02:04.222Z,20.07
2023-05-04T19:02:04.902Z,20.07
2023-05-04T19:04:30.638Z,19.98
2023-05-04T19:07:00.031Z,19.61
2023-05-04T19:07:03.813Z,19.61
2023-05-04T19:09:26.364Z,19.86
2023-05-04T19:11:52.745Z,19.55
2023-05-04T19:12:03.851Z,19.55
2023-05-04T19:14:19.372Z,19.10
2023-05-04T19:16:45.732Z,19.43
2023-05-04T19:17:03.844Z,19.43
2023-05-04T19:19:12.122Z,18.95
2023-05-04T19:21:39.399Z,18.03
2023-05-04T19:22:03.841Z,18.03
2023-05-04T19:24:06.866Z,18.74
2023-05-04T19:26:33.467Z,18.78
2023-05-04T19:27:03.824Z,18.78
2023-05-04T19:28:59.784Z,18.98
2023-05-04T19:31:26.319Z,18.89
2023-05-04T19:32:15.872Z,18.89
2023-05-04T19:33:53.314Z,18.79
2023-05-04T19:36:19.799Z,18.44
2023-05-04T19:37:03.828Z,18.44
2023-05-04T19:38:46.178Z,18.17
2023-05-04T19:41:13.902Z,18.55
2023-05-04T19:42:03.813Z,18.55
2023-05-04T19:43:40.923Z,18.47
2023-05-04T19:46:08.021Z,18.27
2023-05-04T19:47:04.004Z,18.27
2023-05-04T19:48:34.460Z,18.23
2023-05-04T19:51:01.098Z,18.12
2023-05-04T19:52:03.846Z,18.12
2023-05-04T19:53:27.556Z,18.19
2023-05-04T19:55:54.024Z,18.15
2023-05-04T19:57:03.903Z,18.15
2023-05-04T19:58:21.937Z,17.73
2023-05-04T20:00:48.758Z,18.03
2023-05-04T20:02:03.906Z,18.03
2023-05-04T20:03:17.007Z,17.96
2023-05-04T20:05:43.619Z,17.87
2023-05-04T20:07:03.838Z,17.87
2023-05-04T20:08:11.097Z,17.63
2023-05-04T20:10:37.556Z,17.49
2023-05-04T20:12:03.824Z,17.49
2023-05-04T20:13:04.119Z,17.74
2023-05-04T20:15:30.595Z,17.74
2023-05-04T20:17:03.916Z,17.74
2023-05-04T20:17:57.766Z,17.68
2023-05-04T20:20:24.295Z,17.60
2023-05-04T20:22:03.869Z,17.60
2023-05-04T20:22:52.190Z,17.66
2023-05-04T20:25:19.805Z,17.29
2023-05-04T20:27:03.887Z,17.29
2023-05-04T20:27:48.574Z,16.78
2023-05-04T20:30:15.406Z,17.49
2023-05-04T20:32:03.842Z,17.49
2023-05-04T20:32:42.628Z,17.49
2023-05-04T20:35:09.578Z,17.42
2023-05-04T20:37:03.856Z,17.42
2023-05-04T20:37:36.213Z,17.47
2023-05-04T20:40:02.773Z,17.22
2023-05-04T20:42:03.835Z,17.22
2023-05-04T20:42:29.358Z,17.39
2023-05-04T20:44:55.810Z,17.33
2023-05-04T20:47:03.814Z,17.33
2023-05-04T20:47:22.385Z,17.25
2023-05-04T20:49:48.889Z,17.03
2023-05-04T20:52:03.853Z,17.03
2023-05-04T20:52:15.267Z,16.99
2023-05-04T20:54:41.782Z,17.08
2023-05-04T20:57:03.954Z,17.08
2023-05-04T20:57:08.732Z,16.74
2023-05-04T20:59:35.121Z,17.17
2023-05-04T21:02:01.610Z,17.15
2023-05-04T21:02:03.988Z,17.15
2023-05-04T21:04:28.037Z,17.03
2023-05-04T21:06:54.425Z,16.94
2023-05-04T21:07:03.929Z,16.94
2023-05-04T21:09:21.529Z,17.24
2023-05-04T21:11:48.151Z,17.12
2023-05-04T21:12:04.097Z,17.12
2023-05-04T21:14:14.614Z,17.30
2023-05-04T21:16:41.230Z,17.07
2023-05-04T21:17:03.956Z,17.07
2023-05-04T21:19:08.376Z,17.32
2023-05-04T21:21:37.252Z,17.32
2023-05-04T21:22:04.056Z,17.32
2023-05-04T21:24:03.778Z,17.05